sensor_id;sensor_type;location;lat;lon;timestamp;pressure;altitude;pressure_sealevel;temperature;humidity
71567;BME280;59403;47.456;19.120;2023-12-22T00:01:09;97945.56;;;5.10;100.00
71567;BME280;59403;47.456;19.120;2023-12-22T00:03:37;97957.47;;;5.41;100.00
71567;BME280;59403;47.456;19.120;2023-12-22T00:06:03;97966.22;;;5.48;100.00
71567;BME280;59403;47.456;19.120;2023-12-22T00:08:31;97956.00;;;5.39;100.00
71567;BME280;59403;47.456;19.120;2023-12-22T00:10:58;97970.69;;;5.33;100.00
71567;BME280;59403;47.456;19.120;2023-12-22T00:13:25;97979.28;;;5.27;100.00
71567;BME280;59403;47.456;19.120;2023-12-22T00:15:52;97984.78;;;5.18;100.00
71567;BME280;59403;47.456;19.120;2023-12-22T00:18:18;97965.09;;;5.07;100.00
71567;BME280;59403;47.456;19.120;2023-12-22T00:20:45;97965.63;;;5.03;100.00
71567;BME280;59403;47.456;19.120;2023-12-22T00:23:11;97977.03;;;4.95;100.00
71567;BME280;59403;47.456;19.120;2023-12-22T00:25:40;97980.47;;;4.96;100.00
71567;BME280;59403;47.456;19.120;2023-12-22T00:28:06;97986.16;;;4.99;100.00
71567;BME280;59403;47.456;19.120;2023-12-22T00:30:33;97986.53;;;4.96;100.00
71567;BME280;59403;47.456;19.120;2023-12-22T00:33:00;97981.84;;;4.92;100.00
71567;BME280;59403;47.456;19.120;2023-12-22T00:35:26;97995.94;;;4.91;100.00
71567;BME280;59403;47.456;19.120;2023-12-22T00:37:53;98008.84;;;4.92;100.00
71567;BME280;59403;47.456;19.120;2023-12-22T00:40:19;98024.41;;;4.94;100.00
71567;BME280;59403;47.456;19.120;2023-12-22T00:42:47;98038.97;;;4.96;100.00
71567;BME280;59403;47.456;19.120;2023-12-22T00:45:14;98038.72;;;4.91;100.00
71567;BME280;59403;47.456;19.120;2023-12-22T00:47:41;98040.97;;;4.94;100.00
71567;BME280;59403;47.456;19.120;2023-12-22T00:50:08;98043.84;;;4.99;100.00
71567;BME280;59403;47.456;19.120;2023-12-22T00:52:35;98034.84;;;5.02;100.00
71567;BME280;59403;47.456;19.120;2023-12-22T00:55:01;98044.97;;;5.05;100.00
71567;BME280;59403;47.456;19.120;2023-12-22T00:57:28;98038.25;;;5.02;100.00
71567;BME280;59403;47.456;19.120;2023-12-22T00:59:56;98040.06;;;5.16;100.00
71567;BME280;59403;47.456;19.120;2023-12-22T01:02:23;98057.72;;;5.22;100.00
71567;BME280;59403;47.456;19.120;2023-12-22T01:04:50;98072.75;;;5.14;100.00
71567;BME280;59403;47.456;19.120;2023-12-22T01:07:17;98072.28;;;5.10;100.00
71567;BME280;59403;47.456;19.120;2023-12-22T01:09:44;98047.84;;;5.10;100.00
71567;BME280;59403;47.456;19.120;2023-12-22T01:12:10;98015.41;;;5.11;100.00
71567;BME280;59403;47.456;19.120;2023-12-22T01:14:37;97988.34;;;5.10;100.00
71567;BME280;59403;47.456;19.120;2023-12-22T01:17:05;97992.31;;;5.06;100.00
71567;BME280;59403;47.456;19.120;2023-12-22T01:19:32;97986.44;;;5.04;100.00
71567;BME280;59403;47.456;19.120;2023-12-22T01:21:59;97996.75;;;5.06;100.00
71567;BME280;59403;47.456;19.120;2023-12-22T01:24:26;98026.34;;;5.14;100.00
71567;BME280;59403;47.456;19.120;2023-12-22T01:26:52;98031.03;;;5.19;100.00
71567;BME280;59403;47.456;19.120;2023-12-22T01:29:19;98023.28;;;5.11;100.00
71567;BME280;59403;47.456;19.120;2023-12-22T01:31:46;98034.28;;;5.06;100.00
71567;BME280;59403;47.456;19.120;2023-12-22T01:34:13;98030.31;;;5.10;100.00
71567;BME280;59403;47.456;19.120;2023-12-22T01:36:40;98034.66;;;5.03;100.00
71567;BME280;59403;47.456;19.120;2023-12-22T01:39:07;98030.03;;;5.05;100.00
71567;BME280;59403;47.456;19.120;2023-12-22T01:41:34;98039.34;;;5.08;100.00
71567;BME280;59403;47.456;19.120;2023-12-22T01:44:01;98035.09;;;5.07;100.00
71567;BME280;59403;47.456;19.120;2023-12-22T01:46:27;98031.12;;;5.11;100.00
71567;BME280;59403;47.456;19.120;2023-12-22T01:48:54;98040.06;;;5.02;100.00
71567;BME280;59403;47.456;19.120;2023-12-22T01:51:23;98035.72;;;4.94;100.00
71567;BME280;59403;47.456;19.120;2023-12-22T01:53:50;98030.84;;;4.91;100.00
71567;BME280;59403;47.456;19.120;2023-12-22T01:56:18;98037.25;;;4.89;100.00
71567;BME280;59403;47.456;19.120;2023-12-22T01:58:45;98039.41;;;4.85;100.00
71567;BME280;59403;47.456;19.120;2023-12-22T02:01:11;98047.63;;;4.82;100.00
71567;BME280;59403;47.456;19.120;2023-12-22T02:03:38;98040.66;;;4.75;100.00
71567;BME280;59403;47.456;19.120;2023-12-22T02:06:05;98027.72;;;4.73;100.00
71567;BME280;59403;47.456;19.120;2023-12-22T02:08:33;98010.38;;;4.72;100.00
71567;BME280;59403;47.456;19.120;2023-12-22T02:11:01;97989.69;;;4.77;100.00
71567;BME280;59403;47.456;19.120;2023-12-22T02:13:28;97960.84;;;4.77;100.00
71567;BME280;59403;47.456;19.120;2023-12-22T02:16:01;97953.69;;;4.71;100.00
71567;BME280;59403;47.456;19.120;2023-12-22T02:18:33;97979.44;;;4.68;100.00
71567;BME280;59403;47.456;19.120;2023-12-22T02:21:01;97971.31;;;4.62;100.00
71567;BME280;59403;47.456;19.120;2023-12-22T02:23:30;97954.69;;;4.70;100.00
71567;BME280;59403;47.456;19.120;2023-12-22T02:26:01;97950.34;;;4.62;100.00
71567;BME280;59403;47.456;19.120;2023-12-22T02:28:31;97959.72;;;4.57;100.00
71567;BME280;59403;47.456;19.120;2023-12-22T02:31:02;97957.66;;;4.52;100.00
71567;BME280;59403;47.456;19.120;2023-12-22T02:33:31;97963.63;;;4.46;100.00
71567;BME280;59403;47.456;19.120;2023-12-22T02:36:03;97972.28;;;4.47;100.00
71567;BME280;59403;47.456;19.120;2023-12-22T02:38:32;97944.81;;;4.43;100.00
71567;BME280;59403;47.456;19.120;2023-12-22T02:41:00;97945.50;;;4.37;100.00
71567;BME280;59403;47.456;19.120;2023-12-22T02:43:27;97973.09;;;4.47;100.00
71567;BME280;59403;47.456;19.120;2023-12-22T02:45:54;97984.91;;;4.43;100.00
71567;BME280;59403;47.456;19.120;2023-12-22T02:48:20;97992.50;;;4.38;100.00
71567;BME280;59403;47.456;19.120;2023-12-22T02:50:48;98003.91;;;4.45;100.00
71567;BME280;59403;47.456;19.120;2023-12-22T02:53:15;98011.84;;;4.52;100.00
71567;BME280;59403;47.456;19.120;2023-12-22T02:55:43;98002.47;;;4.57;100.00
71567;BME280;59403;47.456;19.120;2023-12-22T02:58:10;98016.69;;;4.63;100.00
71567;BME280;59403;47.456;19.120;2023-12-22T03:00:36;98024.91;;;4.75;100.00
71567;BME280;59403;47.456;19.120;2023-12-22T03:03:03;97990.38;;;4.71;100.00
71567;BME280;59403;47.456;19.120;2023-12-22T03:05:30;97965.91;;;4.79;100.00
71567;BME280;59403;47.456;19.120;2023-12-22T03:07:57;97957.75;;;4.74;100.00
71567;BME280;59403;47.456;19.120;2023-12-22T03:10:23;97972.66;;;4.58;100.00
71567;BME280;59403;47.456;19.120;2023-12-22T03:12:51;97977.78;;;4.52;100.00
71567;BME280;59403;47.456;19.120;2023-12-22T03:15:18;97985.78;;;4.58;100.00
71567;BME280;59403;47.456;19.120;2023-12-22T03:17:44;97998.25;;;4.56;100.00
71567;BME280;59403;47.456;19.120;2023-12-22T03:20:11;97996.31;;;4.50;100.00
71567;BME280;59403;47.456;19.120;2023-12-22T03:22:38;98004.00;;;4.52;100.00
71567;BME280;59403;47.456;19.120;2023-12-22T03:25:05;98005.91;;;4.58;100.00
71567;BME280;59403;47.456;19.120;2023-12-22T03:27:32;97992.34;;;4.54;100.00
71567;BME280;59403;47.456;19.120;2023-12-22T03:30:00;97973.81;;;4.56;100.00
71567;BME280;59403;47.456;19.120;2023-12-22T03:32:27;98009.88;;;4.54;100.00
71567;BME280;59403;47.456;19.120;2023-12-22T03:34:53;98007.62;;;4.51;100.00
71567;BME280;59403;47.456;19.120;2023-12-22T03:37:20;98011.28;;;4.42;100.00
71567;BME280;59403;47.456;19.120;2023-12-22T03:39:47;98038.50;;;4.41;100.00
71567;BME280;59403;47.456;19.120;2023-12-22T03:42:13;98036.34;;;4.44;100.00
71567;BME280;59403;47.456;19.120;2023-12-22T03:44:40;98049.16;;;4.39;100.00
71567;BME280;59403;47.456;19.120;2023-12-22T03:47:08;98044.03;;;4.46;100.00
71567;BME280;59403;47.456;19.120;2023-12-22T03:49:34;98024.63;;;4.55;100.00
71567;BME280;59403;47.456;19.120;2023-12-22T03:52:01;98037.16;;;4.82;100.00
71567;BME280;59403;47.456;19.120;2023-12-22T03:54:28;98036.06;;;4.77;100.00
71567;BME280;59403;47.456;19.120;2023-12-22T03:56:54;98034.72;;;4.81;100.00
71567;BME280;59403;47.456;19.120;2023-12-22T03:59:21;98048.56;;;4.89;100.00
71567;BME280;59403;47.456;19.120;2023-12-22T04:01:50;98042.56;;;4.95;100.00
71567;BME280;59403;47.456;19.120;2023-12-22T04:04:19;98057.19;;;5.12;100.00
71567;BME280;59403;47.456;19.120;2023-12-22T04:06:47;98057.72;;;5.22;100.00
71567;BME280;59403;47.456;19.120;2023-12-22T04:09:14;98057.37;;;5.11;100.00
71567;BME280;59403;47.456;19.120;2023-12-22T04:11:40;98056.44;;;5.18;100.00
71567;BME280;59403;47.456;19.120;2023-12-22T04:14:07;98043.88;;;5.14;100.00
71567;BME280;59403;47.456;19.120;2023-12-22T04:16:36;98064.69;;;5.15;100.00
71567;BME280;59403;47.456;19.120;2023-12-22T04:19:02;98064.34;;;5.33;100.00
71567;BME280;59403;47.456;19.120;2023-12-22T04:21:30;98067.31;;;5.15;100.00
71567;BME280;59403;47.456;19.120;2023-12-22T04:23:57;98075.09;;;5.23;100.00
71567;BME280;59403;47.456;19.120;2023-12-22T04:26:24;98079.87;;;5.20;100.00
71567;BME280;59403;47.456;19.120;2023-12-22T04:28:50;98088.28;;;5.15;100.00
71567;BME280;59403;47.456;19.120;2023-12-22T04:31:17;98092.19;;;5.19;99.66
71567;BME280;59403;47.456;19.120;2023-12-22T04:33:43;98103.06;;;5.31;98.40
71567;BME280;59403;47.456;19.120;2023-12-22T04:36:10;98115.19;;;5.17;99.72
71567;BME280;59403;47.456;19.120;2023-12-22T04:38:38;98117.53;;;5.12;100.00
71567;BME280;59403;47.456;19.120;2023-12-22T04:41:05;98120.84;;;5.06;100.00
71567;BME280;59403;47.456;19.120;2023-12-22T04:43:32;98131.28;;;5.14;100.00
71567;BME280;59403;47.456;19.120;2023-12-22T04:45:59;98123.09;;;5.09;100.00
71567;BME280;59403;47.456;19.120;2023-12-22T04:48:25;98119.41;;;5.04;100.00
71567;BME280;59403;47.456;19.120;2023-12-22T04:50:52;98114.38;;;4.94;100.00
71567;BME280;59403;47.456;19.120;2023-12-22T04:53:19;98115.16;;;4.80;100.00
71567;BME280;59403;47.456;19.120;2023-12-22T04:55:47;98121.88;;;4.60;100.00
71567;BME280;59403;47.456;19.120;2023-12-22T04:58:14;98121.06;;;4.59;100.00
71567;BME280;59403;47.456;19.120;2023-12-22T05:00:40;98120.66;;;4.48;100.00
71567;BME280;59403;47.456;19.120;2023-12-22T05:03:07;98126.31;;;4.59;100.00
71567;BME280;59403;47.456;19.120;2023-12-22T05:05:34;98128.00;;;4.52;100.00
71567;BME280;59403;47.456;19.120;2023-12-22T05:08:00;98134.81;;;4.39;100.00
71567;BME280;59403;47.456;19.120;2023-12-22T05:10:28;98129.94;;;4.28;100.00
71567;BME280;59403;47.456;19.120;2023-12-22T05:12:56;98131.78;;;4.27;100.00
71567;BME280;59403;47.456;19.120;2023-12-22T05:15:22;98125.53;;;4.28;100.00
71567;BME280;59403;47.456;19.120;2023-12-22T05:17:49;98128.72;;;4.38;100.00
71567;BME280;59403;47.456;19.120;2023-12-22T05:20:15;98134.88;;;4.23;100.00
71567;BME280;59403;47.456;19.120;2023-12-22T05:22:42;98132.97;;;4.17;100.00
71567;BME280;59403;47.456;19.120;2023-12-22T05:25:09;98128.75;;;4.08;100.00
71567;BME280;59403;47.456;19.120;2023-12-22T05:27:36;98142.53;;;4.32;100.00
71567;BME280;59403;47.456;19.120;2023-12-22T05:30:05;98145.97;;;4.33;100.00
71567;BME280;59403;47.456;19.120;2023-12-22T05:32:32;98151.16;;;4.41;100.00
71567;BME280;59403;47.456;19.120;2023-12-22T05:34:59;98153.03;;;4.32;100.00
71567;BME280;59403;47.456;19.120;2023-12-22T05:37:25;98157.16;;;4.27;100.00
71567;BME280;59403;47.456;19.120;2023-12-22T05:39:52;98159.81;;;4.41;100.00
71567;BME280;59403;47.456;19.120;2023-12-22T05:42:19;98170.94;;;4.43;100.00
71567;BME280;59403;47.456;19.120;2023-12-22T05:44:45;98177.06;;;4.36;100.00
71567;BME280;59403;47.456;19.120;2023-12-22T05:47:16;98177.09;;;4.28;100.00
71567;BME280;59403;47.456;19.120;2023-12-22T05:49:43;98192.94;;;4.34;100.00
71567;BME280;59403;47.456;19.120;2023-12-22T05:52:11;98186.94;;;4.26;100.00
71567;BME280;59403;47.456;19.120;2023-12-22T05:54:38;98187.19;;;4.39;98.40
71567;BME280;59403;47.456;19.120;2023-12-22T05:57:05;98181.38;;;4.29;99.82
71567;BME280;59403;47.456;19.120;2023-12-22T05:59:32;98189.28;;;4.51;95.76
71567;BME280;59403;47.456;19.120;2023-12-22T06:02:00;98192.38;;;4.47;95.52
71567;BME280;59403;47.456;19.120;2023-12-22T06:04:29;98198.75;;;4.52;94.13
71567;BME280;59403;47.456;19.120;2023-12-22T06:06:56;98187.31;;;4.45;94.55
71567;BME280;59403;47.456;19.120;2023-12-22T06:09:22;98192.78;;;4.36;95.83
71567;BME280;59403;47.456;19.120;2023-12-22T06:11:49;98210.59;;;4.40;93.39
71567;BME280;59403;47.456;19.120;2023-12-22T06:14:16;98212.50;;;4.54;91.02
71567;BME280;59403;47.456;19.120;2023-12-22T06:16:42;98216.56;;;4.57;89.82
71567;BME280;59403;47.456;19.120;2023-12-22T06:19:09;98227.06;;;4.57;88.66
71567;BME280;59403;47.456;19.120;2023-12-22T06:21:39;98226.91;;;4.58;88.34
71567;BME280;59403;47.456;19.120;2023-12-22T06:24:07;98229.38;;;4.52;88.09
71567;BME280;59403;47.456;19.120;2023-12-22T06:26:35;98243.06;;;4.39;89.12
71567;BME280;59403;47.456;19.120;2023-12-22T06:29:01;98243.53;;;4.43;89.86
71567;BME280;59403;47.456;19.120;2023-12-22T06:31:29;98234.84;;;4.42;89.25
71567;BME280;59403;47.456;19.120;2023-12-22T06:33:55;98239.38;;;4.48;87.79
71567;BME280;59403;47.456;19.120;2023-12-22T06:36:26;98241.37;;;4.46;88.13
71567;BME280;59403;47.456;19.120;2023-12-22T06:38:54;98253.06;;;4.67;83.69
71567;BME280;59403;47.456;19.120;2023-12-22T06:41:21;98256.88;;;4.56;84.80
71567;BME280;59403;47.456;19.120;2023-12-22T06:43:48;98258.03;;;4.84;80.11
71567;BME280;59403;47.456;19.120;2023-12-22T06:46:16;98260.12;;;4.89;79.49
71567;BME280;59403;47.456;19.120;2023-12-22T06:48:43;98256.81;;;4.72;81.21
71567;BME280;59403;47.456;19.120;2023-12-22T06:51:16;98259.97;;;4.90;77.72
71567;BME280;59403;47.456;19.120;2023-12-22T06:53:43;98249.91;;;4.71;80.36
71567;BME280;59403;47.456;19.120;2023-12-22T06:56:19;98252.62;;;4.86;77.30
71567;BME280;59403;47.456;19.120;2023-12-22T06:58:47;98260.84;;;4.83;76.96
71567;BME280;59403;47.456;19.120;2023-12-22T07:01:17;98261.56;;;4.69;78.72
71567;BME280;59403;47.456;19.120;2023-12-22T07:03:45;98255.78;;;4.81;77.14
71567;BME280;59403;47.456;19.120;2023-12-22T07:06:11;98273.59;;;4.86;75.95
71567;BME280;59403;47.456;19.120;2023-12-22T07:08:38;98283.97;;;4.79;76.85
71567;BME280;59403;47.456;19.120;2023-12-22T07:11:05;98277.38;;;4.83;75.87
71567;BME280;59403;47.456;19.120;2023-12-22T07:13:34;98290.47;;;4.83;75.66
71567;BME280;59403;47.456;19.120;2023-12-22T07:16:01;98291.56;;;4.66;78.41
71567;BME280;59403;47.456;19.120;2023-12-22T07:18:28;98285.19;;;4.60;79.33
71567;BME280;59403;47.456;19.120;2023-12-22T07:20:55;98295.91;;;4.51;80.54
71567;BME280;59403;47.456;19.120;2023-12-22T07:23:22;98285.13;;;4.77;76.47
71567;BME280;59403;47.456;19.120;2023-12-22T07:25:49;98293.22;;;4.67;77.15
71567;BME280;59403;47.456;19.120;2023-12-22T07:28:15;98295.66;;;4.60;78.48
71567;BME280;59403;47.456;19.120;2023-12-22T07:30:43;98293.03;;;4.69;77.46
71567;BME280;59403;47.456;19.120;2023-12-22T07:33:10;98298.94;;;4.71;77.79
71567;BME280;59403;47.456;19.120;2023-12-22T07:35:37;98299.91;;;4.70;77.95
71567;BME280;59403;47.456;19.120;2023-12-22T07:38:04;98298.53;;;4.82;77.33
71567;BME280;59403;47.456;19.120;2023-12-22T07:40:30;98293.75;;;4.85;76.70
71567;BME280;59403;47.456;19.120;2023-12-22T07:42:57;98288.91;;;4.74;78.26
71567;BME280;59403;47.456;19.120;2023-12-22T07:45:23;98306.00;;;4.62;79.46
71567;BME280;59403;47.456;19.120;2023-12-22T07:47:51;98310.44;;;4.53;81.01
71567;BME280;59403;47.456;19.120;2023-12-22T07:50:18;98322.00;;;4.75;78.74
71567;BME280;59403;47.456;19.120;2023-12-22T07:52:46;98324.06;;;4.88;77.58
71567;BME280;59403;47.456;19.120;2023-12-22T07:55:13;98325.75;;;4.81;78.87
71567;BME280;59403;47.456;19.120;2023-12-22T07:57:40;98339.03;;;4.79;79.62
71567;BME280;59403;47.456;19.120;2023-12-22T08:00:08;98340.78;;;4.87;79.37
71567;BME280;59403;47.456;19.120;2023-12-22T08:02:36;98340.69;;;4.72;80.25
71567;BME280;59403;47.456;19.120;2023-12-22T08:05:04;98341.34;;;4.74;81.50
71567;BME280;59403;47.456;19.120;2023-12-22T08:07:31;98338.87;;;4.73;82.23
71567;BME280;59403;47.456;19.120;2023-12-22T08:09:58;98342.09;;;4.91;79.50
71567;BME280;59403;47.456;19.120;2023-12-22T08:12:24;98331.94;;;4.88;81.84
71567;BME280;59403;47.456;19.120;2023-12-22T08:14:51;98333.06;;;4.93;81.36
71567;BME280;59403;47.456;19.120;2023-12-22T08:17:18;98351.44;;;4.93;82.80
71567;BME280;59403;47.456;19.120;2023-12-22T08:19:44;98339.59;;;4.97;83.77
71567;BME280;59403;47.456;19.120;2023-12-22T08:22:12;98334.22;;;4.91;85.24
71567;BME280;59403;47.456;19.120;2023-12-22T08:24:39;98350.59;;;4.93;85.87
71567;BME280;59403;47.456;19.120;2023-12-22T08:27:07;98347.63;;;4.96;87.32
71567;BME280;59403;47.456;19.120;2023-12-22T08:29:34;98351.38;;;5.01;85.43
71567;BME280;59403;47.456;19.120;2023-12-22T08:32:01;98352.84;;;5.04;85.58
71567;BME280;59403;47.456;19.120;2023-12-22T08:34:27;98352.38;;;5.00;87.77
71567;BME280;59403;47.456;19.120;2023-12-22T08:36:54;98353.09;;;5.17;85.26
71567;BME280;59403;47.456;19.120;2023-12-22T08:39:22;98356.91;;;5.14;86.55
71567;BME280;59403;47.456;19.120;2023-12-22T08:41:50;98354.28;;;5.14;85.85
71567;BME280;59403;47.456;19.120;2023-12-22T08:44:16;98352.16;;;5.10;87.47
71567;BME280;59403;47.456;19.120;2023-12-22T08:46:43;98372.03;;;5.27;83.51
71567;BME280;59403;47.456;19.120;2023-12-22T08:49:10;98371.28;;;5.49;82.35
71567;BME280;59403;47.456;19.120;2023-12-22T08:51:36;98383.75;;;5.47;83.96
71567;BME280;59403;47.456;19.120;2023-12-22T08:54:03;98387.88;;;5.41;85.62
71567;BME280;59403;47.456;19.120;2023-12-22T08:56:31;98381.91;;;5.47;83.89
71567;BME280;59403;47.456;19.120;2023-12-22T08:59:00;98383.00;;;5.30;86.55
71567;BME280;59403;47.456;19.120;2023-12-22T09:01:27;98384.03;;;5.52;81.40
71567;BME280;59403;47.456;19.120;2023-12-22T09:03:53;98382.34;;;5.36;85.06
71567;BME280;59403;47.456;19.120;2023-12-22T09:06:21;98393.78;;;5.43;83.09
71567;BME280;59403;47.456;19.120;2023-12-22T09:08:48;98395.66;;;5.27;85.33
71567;BME280;59403;47.456;19.120;2023-12-22T09:11:17;98382.91;;;5.24;85.00
71567;BME280;59403;47.456;19.120;2023-12-22T09:13:45;98396.38;;;5.21;87.04
71567;BME280;59403;47.456;19.120;2023-12-22T09:16:12;98401.44;;;5.22;87.70
71567;BME280;59403;47.456;19.120;2023-12-22T09:18:40;98393.34;;;5.32;86.47
71567;BME280;59403;47.456;19.120;2023-12-22T09:21:07;98410.44;;;5.28;87.14
71567;BME280;59403;47.456;19.120;2023-12-22T09:23:34;98399.47;;;5.24;89.34
71567;BME280;59403;47.456;19.120;2023-12-22T09:26:01;98392.91;;;5.20;89.35
71567;BME280;59403;47.456;19.120;2023-12-22T09:28:27;98387.28;;;5.31;88.32
71567;BME280;59403;47.456;19.120;2023-12-22T09:30:55;98378.41;;;5.32;86.90
71567;BME280;59403;47.456;19.120;2023-12-22T09:33:22;98370.47;;;5.40;85.72
71567;BME280;59403;47.456;19.120;2023-12-22T09:35:48;98365.38;;;5.47;87.84
71567;BME280;59403;47.456;19.120;2023-12-22T09:38:16;98359.41;;;5.53;87.09
71567;BME280;59403;47.456;19.120;2023-12-22T09:40:43;98357.25;;;5.79;85.28
71567;BME280;59403;47.456;19.120;2023-12-22T09:43:11;98358.91;;;5.80;86.37
71567;BME280;59403;47.456;19.120;2023-12-22T09:45:41;98348.84;;;6.21;80.81
71567;BME280;59403;47.456;19.120;2023-12-22T09:48:10;98359.47;;;6.13;82.60
71567;BME280;59403;47.456;19.120;2023-12-22T09:50:42;98369.19;;;6.27;80.26
71567;BME280;59403;47.456;19.120;2023-12-22T09:53:09;98369.97;;;6.13;82.23
71567;BME280;59403;47.456;19.120;2023-12-22T09:55:37;98368.44;;;6.33;79.45
71567;BME280;59403;47.456;19.120;2023-12-22T09:58:06;98378.13;;;6.18;81.54
71567;BME280;59403;47.456;19.120;2023-12-22T10:00:36;98373.56;;;6.12;82.90
71567;BME280;59403;47.456;19.120;2023-12-22T10:03:04;98369.59;;;6.16;80.88
71567;BME280;59403;47.456;19.120;2023-12-22T10:05:33;98373.94;;;6.09;81.86
71567;BME280;59403;47.456;19.120;2023-12-22T10:08:01;98374.22;;;6.14;82.13
71567;BME280;59403;47.456;19.120;2023-12-22T10:10:28;98373.41;;;6.13;81.44
71567;BME280;59403;47.456;19.120;2023-12-22T10:12:56;98371.53;;;6.22;81.96
71567;BME280;59403;47.456;19.120;2023-12-22T10:15:23;98369.19;;;6.27;80.77
71567;BME280;59403;47.456;19.120;2023-12-22T10:17:50;98367.97;;;6.29;82.25
71567;BME280;59403;47.456;19.120;2023-12-22T10:20:17;98353.78;;;6.38;80.91
71567;BME280;59403;47.456;19.120;2023-12-22T10:22:45;98363.41;;;6.46;79.10
71567;BME280;59403;47.456;19.120;2023-12-22T10:25:15;98354.19;;;6.27;81.79
71567;BME280;59403;47.456;19.120;2023-12-22T10:27:42;98369.63;;;6.30;81.83
71567;BME280;59403;47.456;19.120;2023-12-22T10:30:10;98370.53;;;6.23;82.62
71567;BME280;59403;47.456;19.120;2023-12-22T10:32:39;98371.44;;;6.30;80.83
71567;BME280;59403;47.456;19.120;2023-12-22T10:35:07;98351.41;;;6.29;81.10
71567;BME280;59403;47.456;19.120;2023-12-22T10:37:34;98342.34;;;6.31;82.06
71567;BME280;59403;47.456;19.120;2023-12-22T10:40:06;98338.38;;;6.35;81.78
71567;BME280;59403;47.456;19.120;2023-12-22T10:42:32;98330.56;;;6.42;79.95
71567;BME280;59403;47.456;19.120;2023-12-22T10:45:00;98318.97;;;6.51;79.89
71567;BME280;59403;47.456;19.120;2023-12-22T10:47:27;98306.53;;;6.59;81.70
71567;BME280;59403;47.456;19.120;2023-12-22T10:49:54;98305.28;;;6.41;83.84
71567;BME280;59403;47.456;19.120;2023-12-22T10:52:21;98302.72;;;6.33;84.47
71567;BME280;59403;47.456;19.120;2023-12-22T10:54:48;98309.19;;;6.30;83.07
71567;BME280;59403;47.456;19.120;2023-12-22T10:57:18;98303.09;;;6.30;81.40
71567;BME280;59403;47.456;19.120;2023-12-22T10:59:46;98305.09;;;6.28;81.73
71567;BME280;59403;47.456;19.120;2023-12-22T11:02:15;98302.75;;;6.18;81.77
71567;BME280;59403;47.456;19.120;2023-12-22T11:04:47;98302.81;;;6.25;80.64
71567;BME280;59403;47.456;19.120;2023-12-22T11:07:16;98305.72;;;6.30;81.60
71567;BME280;59403;47.456;19.120;2023-12-22T11:09:47;98310.63;;;6.33;80.99
71567;BME280;59403;47.456;19.120;2023-12-22T11:12:18;98320.78;;;6.36;80.57
71567;BME280;59403;47.456;19.120;2023-12-22T11:14:45;98316.97;;;6.38;80.47
71567;BME280;59403;47.456;19.120;2023-12-22T11:17:17;98326.22;;;6.49;79.05
71567;BME280;59403;47.456;19.120;2023-12-22T11:19:45;98330.38;;;6.43;80.59
71567;BME280;59403;47.456;19.120;2023-12-22T11:22:14;98320.97;;;6.49;79.05
71567;BME280;59403;47.456;19.120;2023-12-22T11:24:43;98311.53;;;6.54;77.85
71567;BME280;59403;47.456;19.120;2023-12-22T11:27:11;98308.19;;;6.46;80.17
71567;BME280;59403;47.456;19.120;2023-12-22T11:29:41;98299.66;;;6.58;79.32
71567;BME280;59403;47.456;19.120;2023-12-22T11:32:08;98302.91;;;6.60;79.39
71567;BME280;59403;47.456;19.120;2023-12-22T11:34:38;98304.34;;;6.63;79.14
71567;BME280;59403;47.456;19.120;2023-12-22T11:37:06;98295.66;;;6.62;79.46
71567;BME280;59403;47.456;19.120;2023-12-22T11:39:33;98297.81;;;6.59;80.26
71567;BME280;59403;47.456;19.120;2023-12-22T11:42:01;98295.13;;;6.52;79.36
71567;BME280;59403;47.456;19.120;2023-12-22T11:44:30;98294.84;;;6.62;77.05
71567;BME280;59403;47.456;19.120;2023-12-22T11:47:05;98282.94;;;6.66;78.36
71567;BME280;59403;47.456;19.120;2023-12-22T11:49:32;98277.69;;;6.66;78.64
71567;BME280;59403;47.456;19.120;2023-12-22T11:51:59;98267.28;;;6.58;77.20
71567;BME280;59403;47.456;19.120;2023-12-22T11:54:45;98278.50;;;6.52;77.13
71567;BME280;59403;47.456;19.120;2023-12-22T11:57:33;98288.97;;;6.45;77.37
71567;BME280;59403;47.456;19.120;2023-12-22T12:00:02;98284.72;;;6.44;77.59
71567;BME280;59403;47.456;19.120;2023-12-22T12:02:32;98271.44;;;6.38;76.17
71567;BME280;59403;47.456;19.120;2023-12-22T12:04:59;98275.19;;;6.29;75.77
71567;BME280;59403;47.456;19.120;2023-12-22T12:07:40;98291.13;;;6.42;74.44
71567;BME280;59403;47.456;19.120;2023-12-22T12:10:09;98303.75;;;6.32;76.52
71567;BME280;59403;47.456;19.120;2023-12-22T12:12:37;98306.63;;;6.22;78.01
71567;BME280;59403;47.456;19.120;2023-12-22T12:15:09;98322.03;;;6.40;77.16
71567;BME280;59403;47.456;19.120;2023-12-22T12:17:41;98320.06;;;6.42;76.66
71567;BME280;59403;47.456;19.120;2023-12-22T12:20:09;98309.28;;;6.51;76.14
71567;BME280;59403;47.456;19.120;2023-12-22T12:22:36;98317.22;;;6.43;76.72
71567;BME280;59403;47.456;19.120;2023-12-22T12:25:07;98325.66;;;6.53;75.49
71567;BME280;59403;47.456;19.120;2023-12-22T12:27:35;98315.50;;;6.50;76.62
71567;BME280;59403;47.456;19.120;2023-12-22T12:30:11;98322.31;;;6.45;77.49
71567;BME280;59403;47.456;19.120;2023-12-22T12:32:42;98306.66;;;6.51;78.89
71567;BME280;59403;47.456;19.120;2023-12-22T12:35:10;98320.69;;;6.58;80.45
71567;BME280;59403;47.456;19.120;2023-12-22T12:37:36;98318.28;;;6.78;76.88
71567;BME280;59403;47.456;19.120;2023-12-22T12:40:07;98303.97;;;6.80;76.32
71567;BME280;59403;47.456;19.120;2023-12-22T12:42:36;98319.13;;;6.64;78.57
71567;BME280;59403;47.456;19.120;2023-12-22T12:45:04;98308.44;;;6.51;77.96
71567;BME280;59403;47.456;19.120;2023-12-22T12:47:30;98309.53;;;6.42;78.68
71567;BME280;59403;47.456;19.120;2023-12-22T12:50:01;98313.25;;;6.33;78.39
71567;BME280;59403;47.456;19.120;2023-12-22T12:52:29;98338.06;;;6.16;81.44
71567;BME280;59403;47.456;19.120;2023-12-22T12:54:56;98357.06;;;5.89;82.93
71567;BME280;59403;47.456;19.120;2023-12-22T12:57:24;98342.62;;;5.85;84.26